KJCT/JCT METAR and TAF weather

Enter ICAO airport designator
Station Type Date Time Source
KJCT METAR 2019/04/18 13:51 UTC NOAA

KJCT 181351Z AUTO 29005KT 10SM OVC070 14/10 A2986 RMK AO2 SLP080 T01390100


Station Type Date Time Source
KJCT Decoded METAR 2019/04/18 13:51 UTC NOAA

KIMBLE COUNTY AIRPORT, TX, United States (KJCT) 30-31N 099-46W 523M
Apr 18, 2019 - 09:51 AM EDT / 2019.04.18 1351 UTC
Wind: from the WNW (290 degrees) at 6 MPH (5 KT):0
Visibility: 10 mile(s):0
Sky conditions: overcast
Temperature: 57.0 F (13.9 C)
Dew Point: 50.0 F (10.0 C)
Relative Humidity: 77%
Pressure (altimeter): 29.86 in. Hg (1011 hPa)
ob: KJCT 181351Z AUTO 29005KT 10SM OVC070 14/10 A2986 RMK AO2 SLP080 T01390100
cycle: 14

Station Type Date Time Source
KJCT TAF 2019/04/18 12:22 UTC NOAA

TAF KJCT 181120Z 1812/1912 29009KT P6SM SCT250
FM181500 34014G22KT P6SM SCT250
FM181700 35021G30KT P6SM FEW250
FM190100 34004KT P6SM SKC

Example: see airport list